Time;durP1;ratioP1;P1;durP2;ratioP2;P2;SDS_P1;SDS_P2;PMS_P1;PMS_P2;Temp;Humidity;BMP_temperature;BMP_pressure;BME280_temperature;BME280_humidity;BME280_pressure;Samples;Min_cycle;Max_cycle;Signal;HPM_P1;HPM_P2
2022/09/27 00:02:15;;;;;;;1.48;1.38;;;8.40;99.90;;;;;;6278044;22;20039;-82
2022/09/27 00:05:02;;;;;;;3.28;1.40;;;8.50;99.90;;;;;;6278105;22;20095;-80
2022/09/27 00:07:50;;;;;;;1.88;1.30;;;8.40;99.90;;;;;;6280402;22;20015;-80
2022/09/27 00:10:37;;;;;;;2.58;1.23;;;8.40;99.90;;;;;;6278312;22;20059;-80
2022/09/27 00:13:27;;;;;;;2.03;1.40;;;8.40;1.00;;;;;;6278259;22;20327;-81
2022/09/27 00:16:16;;;;;;;2.50;1.55;;;8.40;1.00;;;;;;6279726;22;20020;-79
2022/09/27 00:19:07;;;;;;;5.65;1.67;;;8.40;1.00;;;;;;6254905;22;20031;-83
2022/09/27 00:21:55;;;;;;;1.90;1.30;;;8.40;26.20;;;;;;6277627;22;20078;-81
2022/09/27 00:24:42;;;;;;;2.05;1.40;;;8.40;48.90;;;;;;6255307;22;20308;-81
2022/09/27 00:27:29;;;;;;;3.20;1.50;;;8.40;99.90;;;;;;6279355;22;20034;-81
2022/09/27 00:30:17;;;;;;;6.85;1.40;;;8.40;99.90;;;;;;6279999;22;20031;-82
2022/09/27 00:33:06;;;;;;;5.00;1.35;;;8.40;99.90;;;;;;6276758;22;20019;-82
2022/09/27 00:36:03;;;;;;;1.92;1.40;;;8.50;99.90;;;;;;6280160;22;20502;-80
2022/09/27 00:38:53;;;;;;;2.25;1.42;;;8.40;1.00;;;;;;6279822;22;20292;-79
2022/09/27 00:41:41;;;;;;;2.97;1.55;;;8.40;1.00;;;;;;6255418;22;20404;-80
2022/09/27 00:44:28;;;;;;;1.50;1.40;;;8.50;9.30;;;;;;6257979;22;20031;-80
2022/09/27 00:47:35;;;;;;;4.18;1.58;;;8.50;99.90;;;;;;6279618;22;20030;-79
2022/09/27 00:50:40;;;;;;;2.90;1.50;;;8.40;1.00;;;;;;6280086;22;20032;-82
2022/09/27 00:53:39;;;;;;;2.13;1.40;;;8.40;99.90;;;;;;6279412;22;20024;-80
2022/09/27 00:56:29;;;;;;;3.30;1.70;;;8.40;1.00;;;;;;6276778;22;20028;-80
2022/09/27 00:59:28;;;;;;;2.95;1.92;;;8.40;1.00;;;;;;6277839;22;20259;-79
2022/09/27 01:02:18;;;;;;;2.65;1.40;;;8.50;99.90;;;;;;6277017;22;20030;-80
2022/09/27 01:05:09;;;;;;;1.60;1.50;;;8.50;99.90;;;;;;6277570;22;20356;-80
2022/09/27 01:07:59;;;;;;;1.45;1.30;;;8.50;99.90;;;;;;6278230;22;20023;-80
2022/09/27 01:11:09;;;;;;;1.60;1.50;;;8.50;99.90;;;;;;6279373;22;20100;-79
2022/09/27 01:14:11;;;;;;;2.10;1.30;;;8.50;99.90;;;;;;6276632;22;20034;-79
2022/09/27 01:17:10;;;;;;;1.63;1.30;;;8.50;99.90;;;;;;6277681;22;20042;-80
2022/09/27 01:20:21;;;;;;;1.95;1.55;;;8.60;73.70;;;;;;6277586;22;20020;-81
2022/09/27 01:23:39;;;;;;;1.52;1.40;;;8.60;99.90;;;;;;6277413;22;20038;-79
2022/09/27 01:26:50;;;;;;;3.50;1.25;;;8.60;1.00;;;;;;6277963;22;20024;-81
2022/09/27 01:29:53;;;;;;;1.70;1.27;;;8.60;99.90;;;;;;6277702;22;20023;-80
2022/09/27 01:32:52;;;;;;;3.13;1.55;;;8.60;1.00;;;;;;6277672;22;20019;-81
2022/09/27 01:35:59;;;;;;;4.25;1.55;;;8.60;99.90;;;;;;6257350;22;20048;-81
2022/09/27 01:39:11;;;;;;;1.83;1.52;;;8.60;99.90;;;;;;6276783;22;20046;-82
2022/09/27 01:42:09;;;;;;;1.40;1.30;;;8.70;99.90;;;;;;6279005;22;20031;-79
2022/09/27 01:45:20;;;;;;;3.70;1.40;;;8.70;99.90;;;;;;6278315;22;20034;-81
2022/09/27 01:48:22;;;;;;;3.95;1.50;;;8.70;99.90;;;;;;6277433;22;20027;-81
2022/09/27 01:51:11;;;;;;;2.67;1.20;;;8.70;99.90;;;;;;6277459;22;20047;-79
2022/09/27 01:54:06;;;;;;;4.40;1.45;;;8.70;99.90;;;;;;6277316;22;20098;-79
2022/09/27 01:56:56;;;;;;;3.53;1.20;;;8.70;99.90;;;;;;6277507;22;20023;-80
2022/09/27 01:59:53;;;;;;;1.60;1.50;;;8.70;99.90;;;;;;6254776;22;20327;-80
2022/09/27 02:02:52;;;;;;;1.60;1.50;;;8.70;1.00;;;;;;6278690;22;20081;-80
2022/09/27 02:05:48;;;;;;;1.48;1.30;;;8.70;1.00;;;;;;6280723;22;20048;-80
2022/09/27 02:08:44;;;;;;;1.77;1.20;;;8.70;99.90;;;;;;6282590;22;20034;-81
2022/09/27 02:11:36;;;;;;;2.25;1.40;;;8.70;99.90;;;;;;6288536;22;20035;-82
2022/09/27 02:14:27;;;;;;;5.93;1.58;;;8.70;1.00;;;;;;6290586;22;20023;-81
2022/09/27 02:17:43;;;;;;;5.78;1.80;;;8.70;99.90;;;;;;6282917;22;20024;-80
2022/09/27 02:20:36;;;;;;;2.22;1.77;;;8.70;99.90;;;;;;6283139;22;20050;-78
2022/09/27 02:23:23;;;;;;;;;;;8.70;1.00;;;;;;6289381;22;20026;-78
2022/09/27 02:26:16;;;;;;;1.85;1.73;;;8.70;92.80;;;;;;6293743;22;20279;-80
2022/09/27 02:29:23;;;;;;;1.83;1.50;;;8.70;99.90;;;;;;6271007;22;20020;-80
2022/09/27 02:32:10;;;;;;;2.97;1.35;;;8.70;99.90;;;;;;6282293;22;20110;-80
2022/09/27 02:35:02;;;;;;;1.67;1.58;;;8.70;99.90;;;;;;6282032;22;20038;-79
2022/09/27 02:37:50;;;;;;;4.07;2.03;;;8.60;99.90;;;;;;6282471;22;20034;-78
2022/09/27 02:40:43;;;;;;;2.10;1.40;;;8.60;1.00;;;;;;6282569;22;20024;-78
2022/09/27 02:43:32;;;;;;;4.53;3.42;;;8.70;1.00;;;;;;6280825;22;20415;-80
2022/09/27 02:46:37;;;;;;;2.25;1.60;;;8.70;1.00;;;;;;6283930;22;20085;-80
2022/09/27 02:49:49;;;;;;;2.22;1.70;;;8.70;1.00;;;;;;6288100;22;20024;-81
2022/09/27 02:53:06;;;;;;;1.85;1.75;;;8.60;1.00;;;;;;6282633;22;20046;-77
2022/09/27 02:56:02;;;;;;;4.30;1.65;;;8.60;1.00;;;;;;6278478;22;20341;-79
2022/09/27 02:59:17;;;;;;;2.30;1.30;;;8.60;1.00;;;;;;6281534;22;20318;-80
2022/09/27 03:02:29;;;;;;;3.05;1.40;;;8.50;1.00;;;;;;6278598;22;20411;-78
2022/09/27 03:05:21;;;;;;;0.90;0.90;;;8.30;99.90;;;;;;6277519;22;20438;-79
2022/09/27 03:08:11;;;;;;;1.73;1.13;;;8.20;99.90;;;;;;6258530;22;20026;-79
2022/09/27 03:10:59;;;;;;;0.80;0.80;;;8.10;1.00;;;;;;6277748;22;20028;-78
2022/09/27 03:13:48;;;;;;;0.90;0.90;;;8.10;17.30;;;;;;6236140;22;20030;-80
2022/09/27 03:16:54;;;;;;;1.20;1.10;;;8.10;1.00;;;;;;6280194;22;20028;-80
2022/09/27 03:19:42;;;;;;;2.30;1.33;;;8.10;99.90;;;;;;6278277;22;20034;-79
2022/09/27 03:22:33;;;;;;;1.35;1.20;;;8.10;99.90;;;;;;6278828;22;20372;-79
2022/09/27 03:25:21;;;;;;;4.93;1.67;;;8.20;1.00;;;;;;6280379;22;20023;-79
2022/09/27 03:28:08;;;;;;;2.92;1.35;;;8.20;99.90;;;;;;6278533;22;20027;-79
2022/09/27 03:30:55;;;;;;;2.85;1.70;;;8.20;4.90;;;;;;6279299;22;20380;-80
2022/09/27 03:33:42;;;;;;;3.50;1.65;;;8.20;1.00;;;;;;6280238;22;20023;-79
2022/09/27 03:36:32;;;;;;;3.45;1.80;;;8.20;99.90;;;;;;6277389;22;20024;-80
2022/09/27 03:39:19;;;;;;;8.40;3.05;;;8.30;99.90;;;;;;6280343;22;20317;-79
2022/09/27 03:42:08;;;;;;;8.70;2.70;;;8.20;99.90;;;;;;6276257;22;20027;-82
2022/09/27 03:44:58;;;;;;;6.30;2.45;;;8.20;99.90;;;;;;6256682;22;20023;-80
2022/09/27 03:47:48;;;;;;;8.55;2.72;;;8.20;18.30;;;;;;6255978;22;20024;-79
2022/09/27 03:50:35;;;;;;;10.10;3.53;;;8.10;99.90;;;;;;6280098;22;20027;-80
2022/09/27 03:53:22;;;;;;;9.55;2.83;;;8.10;99.90;;;;;;6279353;22;20039;-78
2022/09/27 03:56:09;;;;;;;10.35;3.30;;;8.10;1.00;;;;;;6278858;22;20030;-80
2022/09/27 03:59:00;;;;;;;9.75;3.97;;;8.10;1.00;;;;;;6280059;22;20028;-79
2022/09/27 04:01:48;;;;;;;13.35;4.55;;;8.10;99.90;;;;;;6279524;22;20034;-81
2022/09/27 04:04:37;;;;;;;14.75;2.92;;;8.10;99.90;;;;;;6278932;22;20023;-79
2022/09/27 04:07:24;;;;;;;13.50;4.22;;;8.00;99.90;;;;;;6276726;22;20299;-80
2022/09/27 04:10:13;;;;;;;12.23;3.53;;;8.00;99.90;;;;;;6278966;22;20412;-79
2022/09/27 04:13:00;;;;;;;10.43;3.30;;;8.00;1.00;;;;;;6277882;22;20418;-80
2022/09/27 04:15:47;;;;;;;8.18;3.25;;;8.00;99.90;;;;;;6276966;22;20028;-78
2022/09/27 04:18:38;;;;;;;9.52;3.28;;;7.90;1.00;;;;;;6279756;22;20019;-77
2022/09/27 04:21:28;;;;;;;10.20;3.65;;;7.90;67.00;;;;;;6277556;22;20031;-80
2022/09/27 04:24:15;;;;;;;9.18;3.35;;;7.90;99.90;;;;;;6277116;22;20020;-78
2022/09/27 04:27:04;;;;;;;9.25;3.70;;;7.90;99.90;;;;;;6276432;22;20407;-80
2022/09/27 04:29:54;;;;;;;7.28;2.55;;;7.90;99.90;;;;;;6278047;22;20030;-80
2022/09/27 04:32:44;;;;;;;7.40;2.47;;;7.90;99.90;;;;;;6279522;22;20331;-79
2022/09/27 04:38:40;;;;;;;7.45;2.33;;;7.90;46.00;;;;;;6278143;22;20027;-80
2022/09/27 04:41:30;;;;;;;4.95;2.67;;;7.90;32.50;;;;;;6278751;22;20023;-78
2022/09/27 04:44:19;;;;;;;4.43;2.17;;;7.90;1.00;;;;;;6276674;22;20028;-78
2022/09/27 04:47:09;;;;;;;4.47;2.15;;;7.90;99.90;;;;;;6256554;22;20423;-80
2022/09/27 04:49:57;;;;;;;3.03;1.88;;;7.80;99.90;;;;;;6275904;22;20094;-81
2022/09/27 04:52:48;;;;;;;3.67;1.55;;;7.80;99.90;;;;;;6277479;22;20024;-79
2022/09/27 04:55:35;;;;;;;4.32;1.80;;;7.90;1.00;;;;;;6277291;22;20023;-80
2022/09/27 04:58:23;;;;;;;6.25;1.83;;;7.90;1.00;;;;;;6276894;22;20028;-80
2022/09/27 05:01:10;;;;;;;3.75;2.00;;;7.80;1.00;;;;;;6276959;22;20042;-80
2022/09/27 05:03:57;;;;;;;5.78;1.98;;;7.80;99.90;;;;;;6277866;22;20024;-80
2022/09/27 05:06:44;;;;;;;4.85;1.92;;;7.80;99.90;;;;;;6275445;22;20034;-80
2022/09/27 05:09:31;;;;;;;2.25;1.77;;;7.80;99.90;;;;;;6279296;22;20099;-80
2022/09/27 05:12:21;;;;;;;3.40;1.80;;;7.80;99.90;;;;;;6277771;22;20090;-81
2022/09/27 05:15:08;;;;;;;4.80;2.13;;;7.80;99.90;;;;;;6276707;22;20031;-80
2022/09/27 05:17:57;;;;;;;2.45;1.50;;;7.80;99.90;;;;;;6254111;22;20023;-80
2022/09/27 05:20:44;;;;;;;4.00;1.58;;;7.80;99.90;;;;;;6276483;22;20494;-81
2022/09/27 05:23:31;;;;;;;3.05;1.55;;;7.80;99.90;;;;;;6276164;22;20107;-81
2022/09/27 05:26:18;;;;;;;3.25;1.90;;;7.80;99.90;;;;;;6276381;22;20031;-81
2022/09/27 05:29:05;;;;;;;11.38;2.13;;;7.70;99.90;;;;;;6275556;22;20047;-80
2022/09/27 05:31:52;;;;;;;4.57;1.85;;;7.70;99.90;;;;;;6275018;22;20027;-81
2022/09/27 05:34:40;;;;;;;4.47;1.80;;;7.70;99.90;;;;;;6277915;22;20315;-80
2022/09/27 05:37:32;;;;;;;4.63;2.15;;;7.70;1.00;;;;;;6277601;22;20050;-80
2022/09/27 05:40:25;;;;;;;2.10;1.95;;;7.60;1.00;;;;;;6255533;22;20082;-78
2022/09/27 05:43:28;;;;;;;8.90;3.20;;;7.60;53.00;;;;;;6275611;22;20031;-81
2022/09/27 05:46:15;;;;;;;8.20;4.00;;;7.60;99.90;;;;;;6274750;22;20031;-79
2022/09/27 05:49:03;;;;;;;10.68;3.35;;;7.60;99.90;;;;;;6254008;22;20111;-79
2022/09/27 05:51:50;;;;;;;5.80;2.55;;;7.60;99.90;;;;;;6277060;22;20031;-78
2022/09/27 05:54:39;;;;;;;2.30;2.10;;;7.60;99.90;;;;;;6278560;22;20593;-82
2022/09/27 05:57:26;;;;;;;6.85;2.00;;;7.60;99.90;;;;;;6257499;22;20023;-81
2022/09/27 06:00:16;;;;;;;4.50;1.90;;;7.60;22.70;;;;;;6276894;22;20043;-82
2022/09/27 06:03:06;;;;;;;2.08;1.70;;;7.70;1.00;;;;;;6277447;22;20026;-81
2022/09/27 06:05:53;;;;;;;4.07;1.85;;;7.70;1.00;;;;;;6277524;22;20040;-82
2022/09/27 06:08:41;;;;;;;3.65;1.25;;;7.80;99.90;;;;;;6278680;22;20035;-82
2022/09/27 06:11:28;;;;;;;3.50;1.30;;;7.90;99.90;;;;;;6279510;22;20027;-81
2022/09/27 06:14:15;;;;;;;1.60;1.17;;;7.90;99.90;;;;;;6285186;22;20027;-81
2022/09/27 06:17:03;;;;;;;1.23;1.08;;;8.00;58.80;;;;;;6280026;22;20039;-91
2022/09/27 06:19:53;;;;;;;1.27;1.15;;;8.10;1.00;;;;;;6278161;22;20311;-91
2022/09/27 06:22:40;;;;;;;1.98;1.00;;;8.20;1.00;;;;;;6283601;22;20023;-89
2022/09/27 06:25:32;;;;;;;2.40;1.15;;;8.20;99.90;;;;;;6288715;22;20023;-90
2022/09/27 06:28:24;;;;;;;1.42;1.33;;;8.30;99.90;;;;;;6261803;22;20007;-83
2022/09/27 06:31:14;;;;;;;4.38;1.23;;;8.20;99.90;;;;;;6297201;22;20007;-88
2022/09/27 06:34:01;;;;;;;1.48;1.08;;;8.10;99.90;;;;;;6295839;22;20130;-91
2022/09/27 06:36:51;;;;;;;1.92;1.27;;;8.10;99.90;;;;;;6265645;22;20046;-91
2022/09/27 06:39:39;;;;;;;0.88;0.88;;;8.10;99.90;;;;;;6281179;22;20093;-87
2022/09/27 06:42:26;;;;;;;0.80;0.80;;;8.10;99.90;;;;;;6277511;22;20019;-90
2022/09/27 06:45:14;;;;;;;1.25;1.15;;;8.20;99.90;;;;;;6276341;22;20019;-89
2022/09/27 06:48:09;;;;;;;1.17;0.65;;;8.10;99.90;;;;;;6256724;22;20034;-91
2022/09/27 06:50:58;;;;;;;1.55;0.70;;;8.00;99.90;;;;;;6260303;22;20038;-90
2022/09/27 06:54:04;;;;;;;0.70;0.70;;;8.00;99.90;;;;;;6259207;22;20023;-89
2022/09/27 06:56:56;;;;;;;3.15;1.13;;;8.00;99.90;;;;;;6258675;22;20031;-88
2022/09/27 07:03:14;;;;;;;;;;;;;;;;;;;;;
2022/09/27 07:06:05;;;;;;;1.13;0.75;;;8.30;99.90;;;;;;6279863;22;20023;-88
2022/09/27 07:08:57;;;;;;;1.63;0.70;;;8.40;99.90;;;;;;6258040;22;20023;-90
2022/09/27 07:11:44;;;;;;;0.70;0.70;;;8.50;99.90;;;;;;6256254;22;20028;-91
2022/09/27 07:14:33;;;;;;;1.95;0.80;;;8.50;52.20;;;;;;6278345;22;20031;-91
2022/09/27 07:17:21;;;;;;;0.50;0.50;;;8.50;49.60;;;;;;6277450;22;20031;-89
2022/09/27 07:20:09;;;;;;;2.55;0.60;;;8.50;12.80;;;;;;6279064;22;20031;-89
2022/09/27 07:22:59;;;;;;;0.57;0.57;;;8.50;1.00;;;;;;6277952;22;20106;-88
2022/09/27 07:25:46;;;;;;;0.57;0.57;;;8.70;1.00;;;;;;6258265;22;20034;-88
2022/09/27 07:28:36;;;;;;;0.60;0.60;;;8.60;1.00;;;;;;6277426;22;20019;-90
2022/09/27 07:31:27;;;;;;;0.60;0.60;;;8.70;1.00;;;;;;6258733;22;20110;-88
2022/09/27 07:34:17;;;;;;;0.77;0.70;;;8.80;1.00;;;;;;6277660;22;20105;-90
2022/09/27 07:37:07;;;;;;;1.45;0.70;;;8.90;1.00;;;;;;6279737;22;20077;-87
2022/09/27 07:40:00;;;;;;;3.65;0.80;;;8.90;1.00;;;;;;6283682;22;20400;-90
2022/09/27 07:42:53;;;;;;;2.85;0.90;;;9.00;1.00;;;;;;6281536;22;20020;-91
2022/09/27 07:45:40;;;;;;;0.80;0.80;;;9.00;1.00;;;;;;6279585;22;20020;-88
2022/09/27 07:48:28;;;;;;;0.60;0.60;;;9.10;1.00;;;;;;6261383;22;20026;-90
2022/09/27 07:51:17;;;;;;;1.67;0.80;;;9.20;1.00;;;;;;6261472;22;20028;-91
2022/09/27 07:54:07;;;;;;;1.10;1.00;;;9.20;1.00;;;;;;6261275;22;20087;-91
2022/09/27 07:56:56;;;;;;;1.98;0.90;;;9.20;1.00;;;;;;6260703;22;20035;-91
2022/09/27 07:59:47;;;;;;;0.73;0.73;;;9.20;1.00;;;;;;6281170;22;20024;-89
2022/09/27 08:02:35;;;;;;;1.42;0.70;;;9.20;99.90;;;;;;6279485;22;20491;-90
2022/09/27 08:05:30;;;;;;;0.77;0.68;;;9.40;99.90;;;;;;6282248;22;20368;-90
2022/09/27 08:08:17;;;;;;;0.65;0.65;;;9.80;99.90;;;;;;6282873;22;20039;-89
2022/09/27 08:11:17;;;;;;;0.82;0.80;;;10.10;99.90;;;;;;6282708;22;20024;-90
2022/09/27 08:14:08;;;;;;;2.28;0.90;;;10.30;99.90;;;;;;6288649;22;20019;-90
2022/09/27 08:16:58;;;;;;;1.25;0.60;;;10.30;99.90;;;;;;6279148;22;20034;-90
2022/09/27 08:19:48;;;;;;;3.35;1.25;;;10.20;99.90;;;;;;6279715;22;20115;-89
2022/09/27 08:22:41;;;;;;;1.17;1.05;;;10.30;99.90;;;;;;6262097;22;20027;-89
2022/09/27 08:25:30;;;;;;;2.05;1.23;;;10.40;99.90;;;;;;6265755;22;20153;-90
2022/09/27 08:28:21;;;;;;;2.25;1.25;;;10.60;99.90;;;;;;6287192;22;20019;-90
2022/09/27 08:31:15;;;;;;;1.95;1.30;;;10.60;99.90;;;;;;6278037;22;20030;-89
2022/09/27 08:34:03;;;;;;;2.30;1.25;;;10.30;99.90;;;;;;6300619;22;20073;-89
2022/09/27 08:36:54;;;;;;;1.25;0.95;;;9.90;99.90;;;;;;6267943;22;20028;-88
2022/09/27 08:39:41;;;;;;;2.08;0.60;;;9.40;99.90;;;;;;6287972;22;20023;-89
2022/09/27 08:42:49;;;;;;;2.40;0.60;;;8.90;99.90;;;;;;6263154;22;20031;-91
2022/09/27 08:46:05;;;;;;;1.45;0.80;;;8.50;1.00;;;;;;6278622;22;20020;-91
2022/09/27 08:49:04;;;;;;;1.08;0.73;;;8.50;1.00;;;;;;6277597;22;20430;-90
2022/09/27 08:51:54;;;;;;;0.40;0.40;;;8.60;1.00;;;;;;6258972;22;20063;-90
2022/09/27 08:54:43;;;;;;;6.10;1.25;;;8.50;1.00;;;;;;6261934;22;20051;-90
2022/09/27 08:57:31;;;;;;;1.48;0.77;;;8.60;1.00;;;;;;6259602;22;20034;-91
2022/09/27 09:00:19;;;;;;;0.60;0.60;;;8.50;1.00;;;;;;6283713;22;20023;-90
2022/09/27 09:03:19;;;;;;;2.33;0.90;;;8.60;1.00;;;;;;6264662;22;20047;-88
2022/09/27 09:06:44;;;;;;;0.82;0.60;;;8.90;1.00;;;;;;6291259;22;20027;-91
2022/09/27 09:09:40;;;;;;;0.55;0.50;;;9.30;99.90;;;;;;6280448;22;20114;-90
2022/09/27 09:12:45;;;;;;;1.30;0.90;;;9.20;99.90;;;;;;6278238;22;20416;-91
2022/09/27 09:16:12;;;;;;;1.85;0.80;;;9.50;99.90;;;;;;6280217;22;20054;-88
2022/09/27 09:19:21;;;;;;;1.10;1.00;;;9.80;99.90;;;;;;6279460;22;20019;-90
2022/09/27 09:22:41;;;;;;;0.60;0.60;;;10.90;99.90;;;;;;6257017;22;20269;-91
2022/09/27 09:26:00;;;;;;;1.17;0.47;;;11.80;99.90;;;;;;6262238;22;20019;-90
2022/09/27 09:29:35;;;;;;;1.58;0.55;;;12.90;99.90;;;;;;6279243;22;20051;-89
2022/09/27 09:32:39;;;;;;;2.08;0.70;;;13.40;99.90;;;;;;6257634;22;20027;-91
2022/09/27 09:35:42;;;;;;;2.35;1.00;;;13.10;99.90;;;;;;6284949;22;20051;-90
2022/09/27 09:38:33;;;;;;;2.63;0.90;;;13.70;99.90;;;;;;6280858;22;20028;-91
2022/09/27 09:41:44;;;;;;;1.00;0.60;;;14.00;99.90;;;;;;6281236;22;20094;-91
2022/09/27 09:45:00;;;;;;;0.73;0.60;;;14.70;99.90;;;;;;6278896;22;20027;-91
2022/09/27 09:48:03;;;;;;;1.20;0.60;;;14.60;99.90;;;;;;6277710;22;20304;-92
2022/09/27 09:51:00;;;;;;;1.10;0.55;;;14.70;99.90;;;;;;6259943;22;20019;-91
2022/09/27 09:54:01;;;;;;;1.00;0.80;;;15.70;99.90;;;;;;6278426;22;20062;-91
2022/09/27 09:57:22;;;;;;;1.90;0.90;;;13.60;92.30;;;;;;6264080;22;20085;-92
2022/09/27 10:00:21;;;;;;;5.40;1.17;;;12.20;99.90;;;;;;6261808;22;20096;-89
2022/09/27 10:03:16;;;;;;;2.30;1.05;;;12.30;99.90;;;;;;6283375;22;20030;-89
2022/09/27 10:06:05;;;;;;;3.92;0.98;;;13.20;99.90;;;;;;6279717;22;20028;-89
2022/09/27 10:08:56;;;;;;;2.20;1.25;;;12.70;99.90;;;;;;6277846;22;20024;-90
2022/09/27 10:11:47;;;;;;;1.80;1.00;;;13.10;99.90;;;;;;6258398;22;20070;-91
2022/09/27 10:14:37;;;;;;;3.05;1.00;;;13.80;99.90;;;;;;6280390;22;20034;-90
2022/09/27 10:17:37;;;;;;;4.70;1.48;;;13.40;99.90;;;;;;6259181;22;20050;-91
2022/09/27 10:20:36;;;;;;;4.43;1.20;;;12.90;99.90;;;;;;6258692;22;20115;-90
2022/09/27 10:23:29;;;;;;;3.30;1.40;;;12.00;99.90;;;;;;6258275;22;20023;-90
2022/09/27 10:26:20;;;;;;;2.50;1.60;;;11.30;99.90;;;;;;6281704;22;20385;-90
2022/09/27 10:29:33;;;;;;;1.60;1.13;;;10.90;99.90;;;;;;6258992;22;20284;-89
2022/09/27 10:32:31;;;;;;;3.05;1.50;;;10.60;99.90;;;;;;6280188;22;20024;-90
2022/09/27 10:35:31;;;;;;;2.20;1.27;;;10.90;99.90;;;;;;6282093;22;20028;-92
2022/09/27 10:38:19;;;;;;;5.10;1.48;;;11.10;99.90;;;;;;6261982;22;20038;-90
2022/09/27 10:41:21;;;;;;;3.47;1.23;;;12.00;99.90;;;;;;6262284;22;20099;-87
2022/09/27 10:44:14;;;;;;;3.13;1.58;;;11.60;99.90;;;;;;6292364;22;20038;-91
2022/09/27 10:47:08;;;;;;;3.00;1.40;;;11.50;99.90;;;;;;6297625;22;20038;-88
2022/09/27 10:50:05;;;;;;;3.33;1.30;;;11.70;99.90;;;;;;6296508;22;20047;-91
2022/09/27 10:53:20;;;;;;;1.48;1.13;;;13.00;99.90;;;;;;6248237;22;20434;-90
2022/09/27 10:56:28;;;;;;;8.27;1.13;;;13.20;99.90;;;;;;6286284;22;20051;-89
2022/09/27 10:59:18;;;;;;;2.03;1.17;;;12.60;99.90;;;;;;6288099;22;20110;-90
2022/09/27 11:02:29;;;;;;;6.90;1.30;;;12.50;99.90;;;;;;6294251;22;20020;-88
2022/09/27 11:05:24;;;;;;;2.60;1.15;;;12.40;99.90;;;;;;6290053;22;20042;-90
2022/09/27 11:08:25;;;;;;;4.25;1.30;;;12.70;99.90;;;;;;6284209;22;20051;-89
2022/09/27 11:11:27;;;;;;;3.17;0.95;;;14.30;99.90;;;;;;6260670;22;20058;-90
2022/09/27 11:14:19;;;;;;;6.28;1.17;;;14.20;90.20;;;;;;6280862;22;20028;-87
2022/09/27 11:17:12;;;;;;;1.00;0.85;;;14.80;85.00;;;;;;6281991;22;20042;-90
2022/09/27 11:20:36;;;;;;;3.22;1.10;;;14.20;67.80;;;;;;6282249;22;20071;-91
2022/09/27 11:23:29;;;;;;;4.60;1.10;;;12.50;95.90;;;;;;6282870;22;20052;-90
2022/09/27 11:26:41;;;;;;;1.85;0.98;;;11.70;99.90;;;;;;6282873;22;20350;-90
2022/09/27 11:29:43;;;;;;;3.83;1.40;;;11.10;99.90;;;;;;6283420;22;20438;-90
2022/09/27 11:33:08;;;;;;;2.08;1.20;;;10.50;99.90;;;;;;6278798;22;20024;-91
2022/09/27 11:36:05;;;;;;;2.80;1.20;;;10.20;99.90;;;;;;6278534;22;20121;-90
2022/09/27 11:39:02;;;;;;;2.28;1.20;;;10.30;99.90;;;;;;6258836;22;20059;-91
2022/09/27 11:42:06;;;;;;;3.53;1.30;;;10.80;99.90;;;;;;6279300;22;20020;-90
2022/09/27 11:45:43;;;;;;;1.05;0.98;;;10.80;99.90;;;;;;6258583;22;20023;-90
2022/09/27 11:49:24;;;;;;;2.50;1.00;;;10.90;99.90;;;;;;6281563;22;20117;-91
2022/09/27 11:52:40;;;;;;;2.28;1.20;;;10.80;99.90;;;;;;6280516;22;20035;-90
2022/09/27 11:55:40;;;;;;;2.05;1.23;;;10.80;99.90;;;;;;6264189;22;20035;-91
2022/09/27 11:58:35;;;;;;;2.15;1.40;;;10.50;99.90;;;;;;6291758;22;20032;-90
2022/09/27 12:01:49;;;;;;;6.78;1.52;;;10.30;99.90;;;;;;6268283;22;20019;-90
2022/09/27 12:04:56;;;;;;;3.47;1.52;;;10.10;99.90;;;;;;6282927;22;20031;-90
2022/09/27 12:08:14;;;;;;;6.93;1.90;;;9.60;99.90;;;;;;6263121;22;20035;-92
2022/09/27 12:11:24;;;;;;;2.97;1.52;;;9.30;99.90;;;;;;6244577;22;20028;-90
2022/09/27 12:14:41;;;;;;;3.88;1.95;;;9.10;1.00;;;;;;6282938;22;20057;-92
2022/09/27 12:17:35;;;;;;;4.95;1.30;;;9.10;1.00;;;;;;6259810;22;20024;-91
2022/09/27 12:20:32;;;;;;;3.25;1.50;;;9.20;1.00;;;;;;6278959;22;20035;-90
2022/09/27 12:23:28;;;;;;;3.65;1.50;;;9.20;1.00;;;;;;6258451;22;20027;-90
2022/09/27 12:26:36;;;;;;;1.60;1.45;;;9.30;19.50;;;;;;6259992;22;20019;-88
2022/09/27 12:29:32;;;;;;;2.80;1.55;;;9.40;50.40;;;;;;6280882;22;20030;-89
2022/09/27 12:32:29;;;;;;;3.15;1.35;;;9.40;3.70;;;;;;6257090;22;20027;-88
2022/09/27 12:35:28;;;;;;;3.50;1.30;;;9.40;1.00;;;;;;6279511;22;20020;-91
2022/09/27 12:38:22;;;;;;;6.38;1.52;;;9.30;1.00;;;;;;6259744;22;20024;-91
2022/09/27 12:41:16;;;;;;;1.92;1.23;;;9.30;10.10;;;;;;6281130;22;20047;-92
2022/09/27 12:44:03;;;;;;;6.30;1.70;;;9.30;24.30;;;;;;6278618;22;20024;-90
2022/09/27 12:47:16;;;;;;;2.55;1.52;;;9.20;25.30;;;;;;6260872;22;20023;-88
2022/09/27 12:50:27;;;;;;;3.37;1.50;;;9.20;63.90;;;;;;6283558;22;20023;-92
2022/09/27 12:53:42;;;;;;;2.58;1.30;;;9.40;62.90;;;;;;6278826;22;20315;-89
2022/09/27 12:56:45;;;;;;;2.15;1.15;;;10.30;24.40;;;;;;6258607;22;20038;-89
2022/09/27 12:59:53;;;;;;;3.03;1.02;;;10.30;1.00;;;;;;6260878;22;20288;-90
2022/09/27 13:03:08;;;;;;;1.27;0.95;;;9.90;1.00;;;;;;6282262;22;20020;-89
2022/09/27 13:06:36;;;;;;;2.05;1.27;;;9.70;1.00;;;;;;6261459;22;20078;-89
2022/09/27 13:09:26;;;;;;;3.05;1.15;;;9.90;1.00;;;;;;6284510;22;20020;-91
2022/09/27 13:12:21;;;;;;;2.85;0.90;;;10.10;1.00;;;;;;6263981;22;20494;-89
2022/09/27 13:15:32;;;;;;;2.65;0.90;;;10.00;1.00;;;;;;6283729;22;20020;-90
2022/09/27 13:18:34;;;;;;;1.40;1.05;;;10.00;1.00;;;;;;6269962;22;20084;-89
2022/09/27 13:21:50;;;;;;;1.73;1.10;;;10.00;1.00;;;;;;6290059;22;20077;-89
2022/09/27 13:24:41;;;;;;;1.83;1.00;;;9.90;1.00;;;;;;6297111;22;20110;-88
2022/09/27 13:27:39;;;;;;;4.20;1.13;;;10.00;1.00;;;;;;6272454;22;20011;-90
2022/09/27 13:30:35;;;;;;;2.03;0.82;;;10.10;1.00;;;;;;6293056;22;20019;-87
2022/09/27 13:33:28;;;;;;;2.95;1.10;;;10.10;1.00;;;;;;6264714;22;20418;-88
2022/09/27 13:36:29;;;;;;;1.98;1.20;;;10.40;1.00;;;;;;6287245;22;20023;-90
2022/09/27 13:39:19;;;;;;;7.78;1.60;;;11.80;99.90;;;;;;6262962;22;20034;-89
2022/09/27 13:42:28;;;;;;;3.42;0.95;;;12.10;99.90;;;;;;6279638;22;20109;-91
2022/09/27 13:45:22;;;;;;;1.65;0.85;;;11.50;99.90;;;;;;6260977;22;20031;-88
2022/09/27 13:48:57;;;;;;;2.13;0.90;;;10.90;99.90;;;;;;6260044;22;20110;-90
2022/09/27 13:51:56;;;;;;;1.50;0.77;;;10.80;99.90;;;;;;6259935;22;20047;-90
2022/09/27 13:54:51;;;;;;;2.28;0.70;;;10.70;99.90;;;;;;6259194;22;20031;-89
2022/09/27 13:58:04;;;;;;;1.33;0.70;;;10.40;99.90;;;;;;6257948;22;20028;-91
2022/09/27 14:00:54;;;;;;;4.57;0.90;;;10.40;99.90;;;;;;6281675;22;20023;-90
2022/09/27 14:04:00;;;;;;;1.67;1.13;;;10.40;99.90;;;;;;6280957;22;20023;-87
2022/09/27 14:06:53;;;;;;;2.80;0.95;;;10.40;99.90;;;;;;6283191;22;20428;-89
2022/09/27 14:09:48;;;;;;;1.80;0.80;;;10.30;99.90;;;;;;6282908;22;20319;-87
2022/09/27 14:12:39;;;;;;;1.35;0.90;;;10.20;99.90;;;;;;6287311;22;20055;-88
2022/09/27 14:15:40;;;;;;;0.83;0.80;;;10.20;99.90;;;;;;6269643;22;20034;-89
2022/09/27 14:18:29;;;;;;;1.88;1.08;;;10.40;99.90;;;;;;6264354;22;20649;-89
2022/09/27 14:21:31;;;;;;;1.17;0.77;;;10.60;99.90;;;;;;6291284;22;20023;-88
2022/09/27 14:24:28;;;;;;;1.13;0.80;;;11.10;99.90;;;;;;6294201;22;20019;-89
2022/09/27 14:27:28;;;;;;;1.20;0.80;;;11.70;99.90;;;;;;6281365;22;20027;-89
2022/09/27 14:30:16;;;;;;;1.50;0.98;;;11.40;99.90;;;;;;6301851;22;20378;-89
2022/09/27 14:33:03;;;;;;;2.65;0.70;;;11.30;99.90;;;;;;6264499;22;20031;-81
2022/09/27 14:38:57;;;;;;;2.28;0.70;;;13.10;99.90;;;;;;6280148;22;20034;-81
2022/09/27 14:41:47;;;;;;;1.35;0.82;;;12.20;99.90;;;;;;6280639;22;20024;-80
2022/09/27 14:44:34;;;;;;;4.50;0.88;;;12.10;99.90;;;;;;6280642;22;20081;-82
2022/09/27 14:47:28;;;;;;;0.70;0.60;;;11.80;99.90;;;;;;6282356;22;20027;-82
2022/09/27 14:50:28;;;;;;;0.55;0.55;;;11.00;99.90;;;;;;6280268;22;20334;-82
2022/09/27 14:53:24;;;;;;;1.00;0.85;;;10.50;99.90;;;;;;6277968;22;20039;-81
2022/09/27 14:56:21;;;;;;;3.47;1.00;;;10.30;99.90;;;;;;6279484;22;20035;-81
2022/09/27 14:59:22;;;;;;;1.35;0.80;;;10.30;99.90;;;;;;6279266;22;20354;-81
2022/09/27 15:02:18;;;;;;;2.53;1.08;;;10.60;99.90;;;;;;6280037;22;20058;-81
2022/09/27 15:05:16;;;;;;;1.65;0.73;;;11.40;99.90;;;;;;6258460;22;20055;-81
2022/09/27 15:08:05;;;;;;;1.02;0.70;;;12.00;99.90;;;;;;6260361;22;20109;-80
2022/09/27 15:10:53;;;;;;;1.33;0.88;;;13.10;99.90;;;;;;6280647;22;20105;-80
2022/09/27 15:13:43;;;;;;;0.82;0.82;;;13.80;99.90;;;;;;6283174;22;20106;-82
2022/09/27 15:16:30;;;;;;;2.33;0.70;;;13.90;98.00;;;;;;6281002;22;20028;-84
2022/09/27 15:19:20;;;;;;;2.53;0.70;;;14.00;89.10;;;;;;6257595;22;20054;-82
2022/09/27 15:22:29;;;;;;;2.38;1.15;;;13.40;81.30;;;;;;6279231;22;20023;-81
2022/09/27 15:25:34;;;;;;;1.77;0.88;;;12.30;90.00;;;;;;6279265;22;20277;-79
2022/09/27 15:28:26;;;;;;;1.45;0.90;;;11.10;94.20;;;;;;6278385;22;20020;-80
2022/09/27 15:31:14;;;;;;;3.25;1.10;;;10.70;97.90;;;;;;6278969;22;20023;-80
2022/09/27 15:34:05;;;;;;;1.00;0.90;;;10.30;99.90;;;;;;6255997;22;20028;-80
2022/09/27 15:37:05;;;;;;;6.05;1.40;;;10.30;99.90;;;;;;6257152;22;20031;-80
2022/09/27 15:39:53;;;;;;;1.42;1.00;;;10.30;99.90;;;;;;6279281;22;20031;-82